createdAt,value
2023-04-15T00:00:47.699Z,3.60
2023-04-15T00:03:34.470Z,3.07
2023-04-15T00:06:22.226Z,3.40
2023-04-15T00:09:08.737Z,3.83
2023-04-15T00:11:55.064Z,3.10
2023-04-15T00:14:41.536Z,5.10
2023-04-15T00:17:28.064Z,3.83
2023-04-15T00:20:14.490Z,3.47
2023-04-15T00:23:01.668Z,4.20
2023-04-15T00:25:47.995Z,4.20
2023-04-15T00:28:34.417Z,3.67
2023-04-15T00:31:21.095Z,3.30
2023-04-15T00:34:07.940Z,3.13
2023-04-15T00:36:54.725Z,3.37
2023-04-15T00:39:40.961Z,3.03
2023-04-15T00:42:27.755Z,3.40
2023-04-15T00:45:14.214Z,3.30
2023-04-15T00:48:01.318Z,3.10
2023-04-15T00:50:47.709Z,3.83
2023-04-15T00:53:34.059Z,3.23
2023-04-15T00:56:24.390Z,3.27
2023-04-15T00:59:10.686Z,3.17
2023-04-15T01:01:57.243Z,3.83
2023-04-15T01:04:43.898Z,3.70
2023-04-15T01:07:31.920Z,3.57
2023-04-15T01:10:18.738Z,3.00
2023-04-15T01:13:05.378Z,3.63
2023-04-15T01:15:53.296Z,3.30
2023-04-15T01:18:40.250Z,2.83
2023-04-15T01:21:27.024Z,3.67
2023-04-15T01:24:17.813Z,3.10
2023-04-15T01:27:05.274Z,2.73
2023-04-15T01:29:51.932Z,3.27
2023-04-15T01:32:38.296Z,3.13
2023-04-15T01:35:24.925Z,2.90
2023-04-15T01:38:12.387Z,3.67
2023-04-15T01:40:59.254Z,3.60
2023-04-15T01:43:45.669Z,3.10
2023-04-15T01:46:32.324Z,3.30
2023-04-15T01:49:20.154Z,3.10
2023-04-15T01:52:06.942Z,3.00
2023-04-15T01:54:53.516Z,3.17
2023-04-15T01:57:40.404Z,2.67
2023-04-15T02:00:27.301Z,2.70
2023-04-15T02:03:13.791Z,3.13
2023-04-15T02:06:00.071Z,3.50
2023-04-15T02:08:48.040Z,3.17
2023-04-15T02:11:35.241Z,3.30
2023-04-15T02:14:23.491Z,3.83
2023-04-15T02:17:10.587Z,3.60
2023-04-15T02:19:57.027Z,2.70
2023-04-15T02:22:44.286Z,2.90
2023-04-15T02:25:30.598Z,2.97
2023-04-15T02:28:16.859Z,2.93
2023-04-15T02:31:09.581Z,2.80
2023-04-15T02:33:56.343Z,3.20
2023-04-15T02:36:42.915Z,3.30
2023-04-15T02:39:29.604Z,2.60
2023-04-15T02:42:16.265Z,3.10
2023-04-15T02:45:03.190Z,2.70
2023-04-15T02:47:53.274Z,3.30
2023-04-15T02:50:40.786Z,3.20
2023-04-15T02:53:29.255Z,3.77
2023-04-15T02:56:17.021Z,3.30
2023-04-15T02:59:04.716Z,2.80
2023-04-15T03:01:51.578Z,3.10
2023-04-15T03:04:37.907Z,3.10
2023-04-15T03:07:24.375Z,3.00
2023-04-15T03:10:11.111Z,3.30
2023-04-15T03:12:57.523Z,3.53
2023-04-15T03:15:46.621Z,3.40
2023-04-15T03:18:33.130Z,3.20
2023-04-15T03:21:23.814Z,2.90
2023-04-15T03:24:10.892Z,3.00
2023-04-15T03:26:57.868Z,3.00
2023-04-15T03:29:44.467Z,3.13
2023-04-15T03:32:31.638Z,3.40
2023-04-15T03:35:17.950Z,3.60
2023-04-15T03:38:04.256Z,3.03
2023-04-15T03:40:50.497Z,3.00
2023-04-15T03:43:36.807Z,2.83
2023-04-15T03:46:22.988Z,3.33
2023-04-15T03:49:09.438Z,2.70
2023-04-15T03:51:55.778Z,2.53
2023-04-15T03:54:42.335Z,3.20
2023-04-15T03:57:29.515Z,2.60
2023-04-15T04:00:16.095Z,3.43
2023-04-15T04:03:02.772Z,2.90
2023-04-15T04:05:49.104Z,2.73
2023-04-15T04:08:35.559Z,3.33
2023-04-15T04:11:22.065Z,2.43
2023-04-15T04:14:08.387Z,3.10
2023-04-15T04:16:55.712Z,4.47
2023-04-15T04:19:42.164Z,2.77
2023-04-15T04:22:28.308Z,2.67
2023-04-15T04:25:14.561Z,3.00
2023-04-15T04:28:00.709Z,2.90
2023-04-15T04:30:47.143Z,3.20
2023-04-15T04:33:33.806Z,3.17
2023-04-15T04:36:20.632Z,3.40
2023-04-15T04:39:07.105Z,2.90
2023-04-15T04:41:53.651Z,2.80
2023-04-15T04:44:40.092Z,2.43
2023-04-15T04:47:26.482Z,2.63
2023-04-15T04:50:12.812Z,2.93
2023-04-15T04:52:58.944Z,3.17
2023-04-15T04:55:45.624Z,3.17
2023-04-15T04:58:32.130Z,3.57
2023-04-15T05:01:18.528Z,3.37
2023-04-15T05:04:05.411Z,3.63
2023-04-15T05:06:52.169Z,2.90
2023-04-15T05:09:38.523Z,3.60
2023-04-15T05:12:24.838Z,2.97
2023-04-15T05:15:11.489Z,2.50
2023-04-15T05:17:57.894Z,3.30
2023-04-15T05:20:44.476Z,3.50
2023-04-15T05:23:30.768Z,3.07
2023-04-15T05:26:17.696Z,2.80
2023-04-15T05:29:04.349Z,3.50
2023-04-15T05:31:50.884Z,3.20
2023-04-15T05:34:37.228Z,3.80
2023-04-15T05:37:23.846Z,6.60
2023-04-15T05:40:10.607Z,3.60
2023-04-15T05:42:56.999Z,2.73
2023-04-15T05:45:43.233Z,3.27
2023-04-15T05:48:29.753Z,3.00
2023-04-15T05:51:16.123Z,3.30
2023-04-15T05:54:02.772Z,3.50
2023-04-15T05:56:49.137Z,3.13
2023-04-15T05:59:35.451Z,3.20
2023-04-15T06:02:22.141Z,2.87
2023-04-15T06:05:09.872Z,3.80
2023-04-15T06:07:56.489Z,3.27
2023-04-15T06:10:42.804Z,3.30
2023-04-15T06:13:29.287Z,3.00
2023-04-15T06:16:15.869Z,2.83
2023-04-15T06:19:03.047Z,3.60
2023-04-15T06:21:49.633Z,3.70
2023-04-15T06:24:37.012Z,3.27
2023-04-15T06:27:23.681Z,3.87
2023-04-15T06:30:10.311Z,4.30
2023-04-15T06:32:56.909Z,4.63
2023-04-15T06:35:43.061Z,3.70
2023-04-15T06:38:29.365Z,3.90
2023-04-15T06:41:15.912Z,4.70
2023-04-15T06:44:02.581Z,4.40
2023-04-15T06:46:49.152Z,4.00
2023-04-15T06:49:35.599Z,3.57
2023-04-15T06:52:22.298Z,4.27
2023-04-15T06:55:08.900Z,3.43
2023-04-15T06:57:55.381Z,2.87
2023-04-15T07:00:42.399Z,4.03
2023-04-15T07:03:30.812Z,3.73
2023-04-15T07:06:18.382Z,4.03
2023-04-15T07:09:05.551Z,4.50
2023-04-15T07:11:52.473Z,3.57
2023-04-15T07:14:38.720Z,3.87
2023-04-15T07:17:25.085Z,3.37
2023-04-15T07:20:12.755Z,3.20
2023-04-15T07:22:59.107Z,3.43
2023-04-15T07:25:45.322Z,4.00
2023-04-15T07:28:32.257Z,3.20
2023-04-15T07:31:19.057Z,3.93
2023-04-15T07:34:07.351Z,3.40
2023-04-15T07:36:53.662Z,3.70
2023-04-15T07:39:40.000Z,3.47
2023-04-15T07:42:27.052Z,3.87
2023-04-15T07:45:13.211Z,3.57
2023-04-15T07:47:59.766Z,3.30
2023-04-15T07:50:46.328Z,3.97
2023-04-15T07:53:33.232Z,4.43
2023-04-15T07:56:19.573Z,3.80
2023-04-15T07:59:06.472Z,2.70
2023-04-15T08:01:53.109Z,2.87
2023-04-15T08:04:39.529Z,2.90
2023-04-15T08:07:26.400Z,3.17
2023-04-15T08:10:12.830Z,2.93
2023-04-15T08:12:59.553Z,3.20
2023-04-15T08:15:46.161Z,2.70
2023-04-15T08:18:32.734Z,3.03
2023-04-15T08:21:19.944Z,2.70
2023-04-15T08:24:06.965Z,2.97
2023-04-15T08:26:53.522Z,2.70
2023-04-15T08:29:40.620Z,2.83
2023-04-15T08:32:27.288Z,2.80
2023-04-15T08:35:14.074Z,2.77
2023-04-15T08:38:00.401Z,2.13
2023-04-15T08:40:47.202Z,2.63
2023-04-15T08:43:47.015Z,2.70
2023-04-15T08:46:34.808Z,2.60
2023-04-15T08:49:22.572Z,2.30
2023-04-15T08:52:09.560Z,2.73
2023-04-15T08:54:58.914Z,2.57
2023-04-15T08:57:45.443Z,2.40
2023-04-15T09:00:33.989Z,2.90
2023-04-15T09:03:22.832Z,2.70
2023-04-15T09:06:09.617Z,2.73
2023-04-15T09:08:56.346Z,2.50
2023-04-15T09:11:42.871Z,2.50
2023-04-15T09:14:32.069Z,2.60
2023-04-15T09:17:21.109Z,2.20
2023-04-15T09:20:09.746Z,2.70
2023-04-15T09:22:56.318Z,2.60
2023-04-15T09:25:42.981Z,2.50
2023-04-15T09:28:30.182Z,3.50
2023-04-15T09:31:17.025Z,2.30
2023-04-15T09:34:03.703Z,2.37
2023-04-15T09:36:56.256Z,2.87
2023-04-15T09:39:51.044Z,2.43
2023-04-15T09:42:38.031Z,2.90
2023-04-15T09:45:25.716Z,2.30
2023-04-15T09:48:17.023Z,2.30
2023-04-15T09:51:03.471Z,2.43
2023-04-15T09:53:54.800Z,2.33
2023-04-15T09:56:43.772Z,1.77
2023-04-15T09:59:30.154Z,1.93
2023-04-15T10:02:20.847Z,1.80
2023-04-15T10:05:09.976Z,2.10
2023-04-15T10:07:57.525Z,1.70
2023-04-15T10:10:45.772Z,1.80
2023-04-15T10:13:37.223Z,1.87
2023-04-15T10:16:28.509Z,2.07
2023-04-15T10:19:18.953Z,1.70
2023-04-15T10:22:06.521Z,1.60
2023-04-15T10:24:53.712Z,3.00
2023-04-15T10:27:42.229Z,1.70
2023-04-15T10:30:28.948Z,2.13
2023-04-15T10:33:21.129Z,1.70
2023-04-15T10:36:07.836Z,2.13
2023-04-15T10:38:54.652Z,1.93
2023-04-15T10:41:41.392Z,2.07
2023-04-15T10:44:27.530Z,2.30
2023-04-15T10:47:19.498Z,2.40
2023-04-15T10:50:06.296Z,2.90
2023-04-15T10:52:52.825Z,2.50
2023-04-15T10:55:39.422Z,1.90
2023-04-15T10:58:26.034Z,1.87
2023-04-15T11:01:13.375Z,2.00
2023-04-15T11:03:59.993Z,2.83
2023-04-15T11:06:46.904Z,2.57
2023-04-15T11:09:34.250Z,2.63
2023-04-15T11:12:20.753Z,2.90
2023-04-15T11:15:34.473Z,2.20
2023-04-15T11:18:26.408Z,2.30
2023-04-15T11:21:12.780Z,2.00
2023-04-15T11:23:59.050Z,2.43
2023-04-15T11:26:45.558Z,2.33
2023-04-15T11:29:32.316Z,2.30
2023-04-15T11:32:18.931Z,2.93
2023-04-15T11:35:05.361Z,2.73
2023-04-15T11:37:53.255Z,2.40
2023-04-15T11:40:40.926Z,2.50
2023-04-15T11:43:27.478Z,2.70
2023-04-15T11:46:13.882Z,2.63
2023-04-15T11:49:00.813Z,2.60
2023-04-15T11:51:47.717Z,2.47
2023-04-15T11:54:34.224Z,3.13
2023-04-15T11:57:20.444Z,2.67
2023-04-15T12:00:08.092Z,2.67
2023-04-15T12:03:17.294Z,2.43
2023-04-15T12:06:07.166Z,2.27
2023-04-15T12:08:59.035Z,2.00
2023-04-15T12:11:57.464Z,2.63
2023-04-15T12:14:44.826Z,2.47
2023-04-15T12:17:31.625Z,2.30
2023-04-15T12:20:45.273Z,2.50
2023-04-15T12:23:31.639Z,2.33
2023-04-15T12:26:25.529Z,2.03
2023-04-15T12:29:13.643Z,2.27
2023-04-15T12:32:14.078Z,2.30
2023-04-15T12:35:00.644Z,2.50
2023-04-15T12:37:46.707Z,2.10
2023-04-15T12:40:33.139Z,2.00
2023-04-15T12:43:19.617Z,2.30
2023-04-15T12:46:06.990Z,2.50
2023-04-15T12:48:53.679Z,1.97
2023-04-15T12:51:39.907Z,2.27
2023-04-15T12:54:27.092Z,2.30
2023-04-15T12:57:13.790Z,1.70
2023-04-15T13:00:00.286Z,1.77
2023-04-15T13:02:47.006Z,1.90
2023-04-15T13:05:33.669Z,1.80
2023-04-15T13:08:20.070Z,1.67
2023-04-15T13:11:06.610Z,1.80
2023-04-15T13:13:53.019Z,1.60
2023-04-15T13:16:39.788Z,1.77
2023-04-15T13:19:26.590Z,1.80
2023-04-15T13:22:14.901Z,1.93
2023-04-15T13:25:01.374Z,1.43
2023-04-15T13:27:48.109Z,1.90
2023-04-15T13:30:34.345Z,1.63
2023-04-15T13:33:20.864Z,1.80
2023-04-15T13:36:08.300Z,2.47
2023-04-15T13:38:55.579Z,1.57
2023-04-15T13:41:41.806Z,1.80
2023-04-15T13:44:28.068Z,5.40
2023-04-15T13:47:16.050Z,4.03
2023-04-15T13:50:02.355Z,2.33
2023-04-15T13:52:48.682Z,1.50
2023-04-15T13:55:35.508Z,1.70
2023-04-15T13:58:21.932Z,2.13
2023-04-15T14:01:08.231Z,1.60
2023-04-15T14:03:54.678Z,3.90
2023-04-15T14:06:41.217Z,1.63
2023-04-15T14:09:28.119Z,1.90
2023-04-15T14:12:15.221Z,2.63
2023-04-15T14:15:02.233Z,3.27
2023-04-15T14:17:48.469Z,1.50
2023-04-15T14:20:35.157Z,1.30
2023-04-15T14:23:22.793Z,2.50
2023-04-15T14:26:09.195Z,1.67
2023-04-15T14:28:55.669Z,1.60
2023-04-15T14:31:42.479Z,1.90
2023-04-15T14:34:48.968Z,1.40
2023-04-15T14:37:35.924Z,1.63
2023-04-15T14:40:22.756Z,2.30
2023-04-15T14:43:09.249Z,1.40
2023-04-15T14:45:55.976Z,2.50
2023-04-15T14:48:42.824Z,1.70
2023-04-15T14:51:29.413Z,1.57
2023-04-15T14:54:16.094Z,1.87
2023-04-15T14:57:03.276Z,1.70
2023-04-15T14:59:49.649Z,1.17
2023-04-15T15:02:39.733Z,2.53
2023-04-15T15:05:29.908Z,4.10
2023-04-15T15:08:16.098Z,1.70
2023-04-15T15:11:02.420Z,2.63
2023-04-15T15:13:48.521Z,3.93
2023-04-15T15:16:34.956Z,2.40
2023-04-15T15:19:22.371Z,2.30
2023-04-15T15:22:08.775Z,1.73
2023-04-15T15:24:55.039Z,1.30
2023-04-15T15:27:41.312Z,1.50
2023-04-15T15:30:27.586Z,1.70
2023-04-15T15:33:13.693Z,1.90
2023-04-15T15:35:59.876Z,1.60
2023-04-15T15:38:46.446Z,1.60
2023-04-15T15:41:33.357Z,1.47
2023-04-15T15:44:19.660Z,1.40
2023-04-15T15:47:06.491Z,1.30
2023-04-15T15:49:57.120Z,1.40
2023-04-15T15:52:43.692Z,1.20
2023-04-15T15:55:29.915Z,1.40
2023-04-15T15:58:16.619Z,1.40
2023-04-15T16:01:03.385Z,1.30
2023-04-15T16:03:49.925Z,1.50
2023-04-15T16:06:36.383Z,1.27
2023-04-15T16:09:22.885Z,1.10
2023-04-15T16:12:09.395Z,1.57
2023-04-15T16:14:55.712Z,1.37
2023-04-15T16:17:42.148Z,1.50
2023-04-15T16:20:28.848Z,2.03
2023-04-15T16:23:16.582Z,1.70
2023-04-15T16:26:03.194Z,1.50
2023-04-15T16:28:49.448Z,1.70
2023-04-15T16:31:37.345Z,1.57
2023-04-15T16:34:24.015Z,1.87
2023-04-15T16:37:10.317Z,1.87
2023-04-15T16:39:56.464Z,1.50
2023-04-15T16:42:43.614Z,2.13
2023-04-15T16:45:29.908Z,1.67
2023-04-15T16:48:16.410Z,1.90
2023-04-15T16:51:02.853Z,1.93
2023-04-15T16:53:49.427Z,1.43
2023-04-15T16:56:35.774Z,2.63
2023-04-15T16:59:22.180Z,1.50
2023-04-15T17:02:13.874Z,1.77
2023-04-15T17:05:00.437Z,2.77
2023-04-15T17:07:46.732Z,2.40
2023-04-15T17:10:33.080Z,2.70
2023-04-15T17:13:19.270Z,3.20
2023-04-15T17:16:06.383Z,2.27
2023-04-15T17:18:53.161Z,3.67
2023-04-15T17:21:39.314Z,1.90
2023-04-15T17:24:26.065Z,5.00
2023-04-15T17:27:12.467Z,4.23
2023-04-15T17:29:58.834Z,4.70
2023-04-15T17:32:45.284Z,4.43
2023-04-15T17:35:32.005Z,4.17
2023-04-15T17:38:18.235Z,2.10
2023-04-15T17:41:07.311Z,3.53
2023-04-15T17:43:53.557Z,1.90
2023-04-15T17:46:39.805Z,2.53
2023-04-15T17:49:27.185Z,3.50
2023-04-15T17:52:14.465Z,4.80
2023-04-15T17:55:00.908Z,4.17
2023-04-15T17:57:57.311Z,2.97
2023-04-15T18:05:51.679Z,5.17
2023-04-15T18:08:38.442Z,2.40
2023-04-15T18:11:24.811Z,4.57
2023-04-15T18:14:11.316Z,4.00
2023-04-15T18:16:58.825Z,4.87
2023-04-15T18:19:45.858Z,2.70
2023-04-15T18:22:32.589Z,6.83
2023-04-15T18:25:19.483Z,3.37
2023-04-15T18:28:06.196Z,5.33
2023-04-15T18:30:52.542Z,5.43
2023-04-15T18:33:39.342Z,2.97
2023-04-15T18:36:26.608Z,5.53
2023-04-15T18:39:13.164Z,4.10
2023-04-15T18:41:59.622Z,4.30
2023-04-15T18:44:45.806Z,5.87
2023-04-15T18:47:32.250Z,6.40
2023-04-15T18:50:18.615Z,5.67
2023-04-15T18:53:04.740Z,8.90
2023-04-15T18:55:51.526Z,8.40
2023-04-15T18:59:18.795Z,7.27
2023-04-15T19:01:44.509Z,6.93
2023-04-15T19:04:30.671Z,5.80
2023-04-15T19:07:17.490Z,4.90
2023-04-15T19:10:05.751Z,4.50
2023-04-15T19:12:52.287Z,4.53
2023-04-15T19:15:38.581Z,4.57
2023-04-15T19:18:26.106Z,5.13
2023-04-15T19:21:13.240Z,4.37
2023-04-15T19:24:00.510Z,4.67
2023-04-15T19:26:51.125Z,4.70
2023-04-15T19:29:37.463Z,3.90
2023-04-15T19:32:24.367Z,4.30
2023-04-15T19:35:11.642Z,4.50
2023-04-15T19:37:58.641Z,4.97
2023-04-15T19:40:45.262Z,5.30
2023-04-15T19:43:32.744Z,5.17
2023-04-15T19:46:19.244Z,4.23
2023-04-15T19:49:06.107Z,5.40
2023-04-15T19:51:52.684Z,4.60
2023-04-15T19:54:39.170Z,4.90
2023-04-15T19:57:25.855Z,5.27
2023-04-15T20:00:12.589Z,4.90
2023-04-15T20:02:58.971Z,5.67
2023-04-15T20:05:45.890Z,4.90
2023-04-15T20:08:32.491Z,5.97
2023-04-15T20:11:19.077Z,5.13
2023-04-15T20:14:05.434Z,5.43
2023-04-15T20:16:51.684Z,5.57
2023-04-15T20:19:37.861Z,6.97
2023-04-15T20:22:24.038Z,5.10
2023-04-15T20:25:10.407Z,5.70
2023-04-15T20:28:00.306Z,5.80
2023-04-15T20:30:47.543Z,6.87
2023-04-15T20:33:33.913Z,6.63
2023-04-15T20:36:20.300Z,5.60
2023-04-15T20:39:07.020Z,6.67
2023-04-15T20:41:53.467Z,6.00
2023-04-15T20:44:39.880Z,6.37
2023-04-15T20:47:26.374Z,6.57
2023-04-15T20:50:12.731Z,7.20
2023-04-15T20:52:58.977Z,7.43
2023-04-15T20:55:45.536Z,7.10
2023-04-15T20:58:32.092Z,6.80
2023-04-15T21:01:18.388Z,6.30
2023-04-15T21:04:04.992Z,6.47
2023-04-15T21:06:52.337Z,6.70
2023-04-15T21:09:41.299Z,6.27
2023-04-15T21:12:27.913Z,6.23
2023-04-15T21:15:14.288Z,7.13
2023-04-15T21:18:00.992Z,5.87
2023-04-15T21:20:47.513Z,6.80
2023-04-15T21:23:35.918Z,6.27
2023-04-15T21:26:22.394Z,6.40
2023-04-15T21:29:11.486Z,6.77
2023-04-15T21:31:58.461Z,7.03
2023-04-15T21:34:44.960Z,7.13
2023-04-15T21:37:31.733Z,7.43
2023-04-15T21:40:19.375Z,7.57
2023-04-15T21:43:06.047Z,6.80
2023-04-15T21:46:22.313Z,7.63
2023-04-15T21:49:00.011Z,8.20
2023-04-15T21:51:47.465Z,8.03
2023-04-15T21:54:33.858Z,8.07
2023-04-15T21:57:20.096Z,8.90
2023-04-15T22:00:08.391Z,7.43
2023-04-15T22:02:54.772Z,8.10
2023-04-15T22:05:46.038Z,8.10
2023-04-15T22:08:38.677Z,8.67
2023-04-15T22:11:35.030Z,7.80
2023-04-15T22:14:21.376Z,8.63
2023-04-15T22:17:07.572Z,7.80
2023-04-15T22:19:53.952Z,7.47
2023-04-15T22:22:43.438Z,7.10
2023-04-15T22:25:31.588Z,7.53
2023-04-15T22:28:17.960Z,7.73
2023-04-15T22:31:04.325Z,7.93
2023-04-15T22:33:50.462Z,8.27
2023-04-15T22:36:36.947Z,7.63
2023-04-15T22:39:23.146Z,8.27
2023-04-15T22:42:09.672Z,7.60
2023-04-15T22:44:56.198Z,8.23
2023-04-15T22:47:42.317Z,8.00
2023-04-15T22:50:28.744Z,8.37
2023-04-15T22:53:16.630Z,8.23
2023-04-15T22:56:03.139Z,7.87
2023-04-15T22:58:49.749Z,8.63
2023-04-15T23:01:38.084Z,8.87
2023-04-15T23:04:25.638Z,7.90
2023-04-15T23:07:13.766Z,9.50
2023-04-15T23:10:01.135Z,7.90
2023-04-15T23:12:47.495Z,8.40
2023-04-15T23:15:33.691Z,9.17
2023-04-15T23:18:19.933Z,7.70
2023-04-15T23:21:06.191Z,7.80
2023-04-15T23:23:52.379Z,9.00
2023-04-15T23:26:38.872Z,7.90
2023-04-15T23:29:25.090Z,7.27
2023-04-15T23:32:11.460Z,8.63
2023-04-15T23:34:57.932Z,7.17
2023-04-15T23:37:44.181Z,8.10
2023-04-15T23:40:30.355Z,7.77
2023-04-15T23:43:16.967Z,7.77
2023-04-15T23:46:03.467Z,8.43
2023-04-15T23:48:50.041Z,8.73
2023-04-15T23:51:36.298Z,8.23
2023-04-15T23:54:23.363Z,8.17
2023-04-15T23:57:09.616Z,8.07
2023-04-15T23:59:56.113Z,7.87
